Terminal Aerodrome Forecast
Issued by NWS Melbourne, FL

Home | Current Version | Previous Version | Text Only | Print | Product List | Glossary On
Versions: 1 2 3 4 5 6 7 8 9 10 11 12 13 14 15 16
000
FTUS42 KMLB 180500 RRA
TAFMLB
TAF
KMLB 180543Z 1806/1906 09012KT P6SM VCSH SCT020 BKN050 OVC150
      TEMPO 1810/1813 -SHRA SCT015 BKN025
     FM181400 11012G18KT P6SM VCSH SCT035 BKN060
     FM181900 14011G20KT P6SM SHRA VCTS SCT020 BKN040CB OVC060
     FM190500 16008KT P6SM VCSH BKN030 OVC050=

USA.gov is the U.S. government's official web portal to all federal, state and local government web resources and services.